Terminal Aerodrome Forecast
Issued by NWS Tulsa, OK

Home | Current Version | Previous Version | Text Only | Print | Product List | Glossary On
Versions: 1 2 3 4 5 6 7 8 9 10 11 12
555
FTUS44 KTSA 080525
TAFFSM
TAF
KFSM 080525Z 0806/0906 29011KT P6SM SCT150
     FM081400 30016G32KT P6SM BKN050
     FM090000 31012KT P6SM SKC=

USA.gov is the U.S. government's official web portal to all federal, state and local government web resources and services.